KBFM/BFM METAR and TAF weather

Enter ICAO airport designator
Station Type Date Time Source
KBFM METAR 2022/12/01 00:53 UTC NOAA

KBFM 010053Z 35011KT 10SM CLR 13/01 A3029 RMK AO2 SLP257 T01330006


Station Type Date Time Source
KBFM Decoded METAR 2022/12/01 00:53 UTC NOAA

MOBILE DOWNTOWN AIRPORT, AL, United States (KBFM) 30-38N 88-04W 20M
Nov 30, 2022 - 07:53 PM EST / 2022.12.01 0053 UTC
Wind: from the N (350 degrees) at 13 MPH (11 KT):0
Visibility: 10 mile(s):0
Sky conditions: clear
Temperature: 55.9 F (13.3 C)
Dew Point: 33.1 F (0.6 C)
Relative Humidity: 41%
Pressure (altimeter): 30.29 in. Hg (1025 hPa)
ob: KBFM 010053Z 35011KT 10SM CLR 13/01 A3029 RMK AO2 SLP257 T01330006
cycle: 1

Station Type Date Time Source
KBFM TAF 2022/11/30 22:51 UTC NOAA

TAF
AMD KBFM 302147Z 3022/0118 35014G20KT P6SM SKC
FM010100 36012KT P6SM SKC

Example: see airport list